createdAt,value
2019-01-17T00:00:19.086Z,1.90
2019-01-17T00:05:42.668Z,2.40
2019-01-17T00:11:15.522Z,1.80
2019-01-17T00:16:42.297Z,1.72
2019-01-17T00:22:23.936Z,2.00
2019-01-17T00:27:59.339Z,2.20
2019-01-17T00:33:28.503Z,1.90
2019-01-17T00:38:50.817Z,2.02
2019-01-17T00:44:17.110Z,2.20
2019-01-17T00:49:36.090Z,2.92
2019-01-17T00:55:08.569Z,2.60
2019-01-17T01:00:37.162Z,2.10
2019-01-17T01:06:00.497Z,2.30
2019-01-17T01:11:22.462Z,2.00
2019-01-17T01:17:10.949Z,2.42
2019-01-17T01:22:43.610Z,2.02
2019-01-17T01:28:07.050Z,2.90
2019-01-17T01:33:33.139Z,1.90
2019-01-17T01:38:56.641Z,1.90
2019-01-17T01:44:32.098Z,1.75
2019-01-17T01:49:50.671Z,2.30
2019-01-17T01:54:54.610Z,2.05
2019-01-17T01:59:58.701Z,1.95
2019-01-17T02:05:02.831Z,2.62
2019-01-17T02:10:07.971Z,2.27
2019-01-17T02:15:12.215Z,1.85
2019-01-17T02:20:17.025Z,2.00
2019-01-17T02:25:21.005Z,2.45
2019-01-17T02:30:24.940Z,2.80
2019-01-17T02:35:28.966Z,3.30
2019-01-17T02:40:32.977Z,2.60
2019-01-17T02:45:37.012Z,2.20
2019-01-17T02:50:40.936Z,2.55
2019-01-17T02:55:45.115Z,2.40
2019-01-17T03:00:49.121Z,2.00
2019-01-17T03:05:53.100Z,2.70
2019-01-17T03:10:57.378Z,3.87
2019-01-17T03:16:01.344Z,3.40
2019-01-17T03:21:05.915Z,5.90
2019-01-17T03:26:09.882Z,9.30
2019-01-17T03:31:13.906Z,2.10
2019-01-17T03:36:17.953Z,2.55
2019-01-17T03:41:23.015Z,3.95
2019-01-17T03:46:27.063Z,3.77
2019-01-17T03:51:31.095Z,7.92
2019-01-17T03:56:35.274Z,6.42
2019-01-17T04:01:39.253Z,5.42
2019-01-17T04:06:43.379Z,2.80
2019-01-17T04:11:47.461Z,3.35
2019-01-17T04:16:51.650Z,2.90
2019-01-17T04:21:56.630Z,7.33
2019-01-17T04:27:00.545Z,19.15
2019-01-17T04:32:04.572Z,2.52
2019-01-17T04:37:08.511Z,8.20
2019-01-17T04:42:12.599Z,4.92
2019-01-17T04:47:16.655Z,7.12
2019-01-17T04:52:20.648Z,6.62
2019-01-17T04:57:24.769Z,11.70
2019-01-17T05:02:28.683Z,7.90
2019-01-17T05:07:32.851Z,17.07
2019-01-17T05:12:37.019Z,13.43
2019-01-17T05:17:41.094Z,11.53
2019-01-17T05:22:46.147Z,16.05
2019-01-17T05:27:50.067Z,12.58
2019-01-17T05:32:54.197Z,32.25
2019-01-17T05:37:58.238Z,41.60
2019-01-17T05:43:04.064Z,33.30
2019-01-17T05:48:07.973Z,43.38
2019-01-17T05:53:12.012Z,57.13
2019-01-17T05:58:16.043Z,49.48
2019-01-17T06:03:20.236Z,44.85
2019-01-17T06:08:24.177Z,18.77
2019-01-17T06:13:28.375Z,14.85
2019-01-17T06:18:32.471Z,14.68
2019-01-17T06:23:36.739Z,28.83
2019-01-17T06:28:40.734Z,31.55
2019-01-17T06:33:44.940Z,42.48
2019-01-17T06:38:49.061Z,40.48
2019-01-17T06:43:53.067Z,34.80
2019-01-17T06:48:57.131Z,53.65
2019-01-17T06:54:01.148Z,64.75
2019-01-17T06:59:05.384Z,31.93
2019-01-17T07:04:09.332Z,33.55
2019-01-17T07:09:13.678Z,61.73
2019-01-17T07:14:17.877Z,59.48
2019-01-17T07:19:22.027Z,69.72
2019-01-17T07:24:29.226Z,45.03
2019-01-17T07:29:33.564Z,29.57
2019-01-17T07:34:37.555Z,17.98
2019-01-17T07:39:41.641Z,16.30
2019-01-17T07:44:46.762Z,18.62
2019-01-17T07:49:50.751Z,35.78
2019-01-17T07:54:54.714Z,24.50
2019-01-17T07:59:59.428Z,25.02
2019-01-17T08:05:04.014Z,12.78
2019-01-17T08:10:10.704Z,9.98
2019-01-17T08:15:15.208Z,16.45
2019-01-17T08:20:21.952Z,17.15
2019-01-17T08:25:26.490Z,18.10
2019-01-17T08:30:30.402Z,20.92
2019-01-17T08:35:34.671Z,21.93
2019-01-17T08:40:38.898Z,15.80
2019-01-17T08:45:43.133Z,18.35
2019-01-17T08:50:47.322Z,18.10
2019-01-17T08:55:51.779Z,15.45
2019-01-17T09:00:56.155Z,13.75
2019-01-17T09:06:00.290Z,11.83
2019-01-17T09:11:04.674Z,10.35
2019-01-17T09:16:08.658Z,10.50
2019-01-17T09:21:12.687Z,11.65
2019-01-17T09:26:17.174Z,11.33
2019-01-17T09:31:21.115Z,12.05
2019-01-17T09:36:25.328Z,12.55
2019-01-17T09:41:29.300Z,13.57
2019-01-17T09:46:34.476Z,14.80
2019-01-17T09:51:38.407Z,16.27
2019-01-17T09:56:42.629Z,9.35
2019-01-17T10:01:46.698Z,12.10
2019-01-17T10:06:50.766Z,12.15
2019-01-17T10:11:54.833Z,14.03
2019-01-17T10:17:42.800Z,12.95
2019-01-17T10:22:56.863Z,19.37
2019-01-17T10:28:26.312Z,11.95
2019-01-17T10:33:51.401Z,12.63
2019-01-17T10:39:36.822Z,11.55
2019-01-17T10:45:12.145Z,10.32
2019-01-17T10:50:31.328Z,11.25
2019-01-17T10:56:04.420Z,11.85
2019-01-17T11:01:49.677Z,9.50
2019-01-17T11:07:30.681Z,8.60
2019-01-17T11:13:24.413Z,7.28
2019-01-17T11:18:57.325Z,6.10
2019-01-17T11:24:31.537Z,8.47
2019-01-17T11:30:20.804Z,8.78
2019-01-17T11:36:02.250Z,9.20
2019-01-17T11:41:38.511Z,9.43
2019-01-17T11:47:41.299Z,8.73
2019-01-17T11:53:44.799Z,6.50
2019-01-17T11:59:28.666Z,9.60
2019-01-17T12:04:32.573Z,9.53
2019-01-17T12:09:38.230Z,8.80
2019-01-17T12:14:42.734Z,12.95
2019-01-17T12:19:46.730Z,12.05
2019-01-17T12:24:50.813Z,9.83
2019-01-17T12:29:55.237Z,7.40
2019-01-17T12:34:59.385Z,12.65
2019-01-17T12:40:04.655Z,12.00
2019-01-17T12:45:10.280Z,15.43
2019-01-17T12:50:18.475Z,6.70
2019-01-17T12:55:22.491Z,7.22
2019-01-17T13:00:26.664Z,5.62
2019-01-17T13:05:30.619Z,6.15
2019-01-17T13:10:34.746Z,7.58
2019-01-17T13:15:38.912Z,6.15
2019-01-17T13:20:42.970Z,4.25
2019-01-17T13:25:47.075Z,10.53
2019-01-17T13:30:51.588Z,12.35
2019-01-17T13:35:55.699Z,3.95
2019-01-17T13:40:59.751Z,7.25
2019-01-17T13:46:04.550Z,13.32
2019-01-17T13:51:08.494Z,19.20
2019-01-17T13:56:12.428Z,10.35
2019-01-17T14:01:16.559Z,14.70
2019-01-17T14:06:21.259Z,14.10
2019-01-17T14:11:25.397Z,34.15
2019-01-17T14:16:30.345Z,31.97
2019-01-17T14:21:34.446Z,34.90
2019-01-17T14:26:38.548Z,62.23
2019-01-17T14:31:43.296Z,60.52
2019-01-17T14:36:47.824Z,80.03
2019-01-17T14:41:52.021Z,34.63
2019-01-17T14:46:55.824Z,78.70
2019-01-17T14:51:59.878Z,65.92
2019-01-17T14:57:04.738Z,69.37
2019-01-17T15:02:09.201Z,34.73
2019-01-17T15:07:13.112Z,36.65
2019-01-17T15:12:18.353Z,49.18
2019-01-17T15:17:22.402Z,40.67
2019-01-17T15:22:26.671Z,34.18
2019-01-17T15:27:30.678Z,26.42
2019-01-17T15:32:35.285Z,13.78
2019-01-17T15:37:39.355Z,16.57
2019-01-17T15:42:43.404Z,37.13
2019-01-17T15:47:47.676Z,26.48
2019-01-17T15:52:52.211Z,36.13
2019-01-17T15:57:56.340Z,57.13
2019-01-17T16:03:01.555Z,54.65
2019-01-17T16:08:05.806Z,83.97
2019-01-17T16:13:09.835Z,73.95
2019-01-17T16:18:13.824Z,19.57
2019-01-17T16:23:17.783Z,40.35
2019-01-17T16:28:21.836Z,19.45
2019-01-17T16:33:26.478Z,33.45
2019-01-17T16:38:32.530Z,48.83
2019-01-17T16:43:37.508Z,70.40
2019-01-17T16:48:42.286Z,56.18
2019-01-17T16:53:49.773Z,57.40
2019-01-17T16:58:55.415Z,56.77
2019-01-17T17:04:00.179Z,34.30
2019-01-17T17:09:08.254Z,51.15
2019-01-17T17:14:12.238Z,23.18
2019-01-17T17:19:16.210Z,27.82
2019-01-17T17:24:21.570Z,32.50
2019-01-17T17:29:25.538Z,34.92
2019-01-17T17:34:30.546Z,78.95
2019-01-17T17:39:34.455Z,44.85
2019-01-17T17:44:38.446Z,37.50
2019-01-17T17:49:47.097Z,36.17
2019-01-17T17:54:51.513Z,49.80
2019-01-17T17:59:55.625Z,50.28
2019-01-17T18:04:59.805Z,33.18
2019-01-17T18:10:05.948Z,36.40
2019-01-17T18:15:11.557Z,34.03
2019-01-17T18:20:15.619Z,18.92
2019-01-17T18:25:20.478Z,18.42
2019-01-17T18:30:24.747Z,27.45
2019-01-17T18:35:29.105Z,53.45
2019-01-17T18:40:34.908Z,20.30
2019-01-17T18:45:42.160Z,23.18
2019-01-17T18:50:46.498Z,31.45
2019-01-17T18:55:55.756Z,72.08
2019-01-17T19:01:00.127Z,41.65
2019-01-17T19:06:05.325Z,30.75
2019-01-17T19:11:09.702Z,28.32
2019-01-17T19:16:13.865Z,30.60
2019-01-17T19:21:18.020Z,23.30
2019-01-17T19:26:21.980Z,15.68
2019-01-17T19:31:26.230Z,42.58
2019-01-17T19:36:30.777Z,32.88
2019-01-17T19:41:35.013Z,53.85
2019-01-17T19:46:39.623Z,32.13
2019-01-17T19:51:43.723Z,57.43
2019-01-17T19:56:49.605Z,67.25
2019-01-17T20:01:56.262Z,21.62
2019-01-17T20:07:00.322Z,19.67
2019-01-17T20:12:04.955Z,6.17
2019-01-17T20:17:09.492Z,8.68
2019-01-17T20:22:13.873Z,11.15
2019-01-17T20:27:19.160Z,4.75
2019-01-17T20:32:23.062Z,8.60
2019-01-17T20:37:27.601Z,14.38
2019-01-17T20:42:31.658Z,14.75
2019-01-17T20:47:35.626Z,13.00
2019-01-17T20:52:40.106Z,5.08
2019-01-17T20:57:45.705Z,4.97
2019-01-17T21:02:50.072Z,6.15
2019-01-17T21:07:54.394Z,10.38
2019-01-17T21:12:58.577Z,8.30
2019-01-17T21:18:02.925Z,9.90
2019-01-17T21:23:07.979Z,7.17
2019-01-17T21:28:12.347Z,11.73
2019-01-17T21:33:17.590Z,15.80
2019-01-17T21:38:21.915Z,11.30
2019-01-17T21:43:26.542Z,12.37
2019-01-17T21:48:31.449Z,25.60
2019-01-17T21:53:35.611Z,15.23
2019-01-17T21:58:39.627Z,15.88
2019-01-17T22:03:43.705Z,11.15
2019-01-17T22:08:48.873Z,18.92
2019-01-17T22:13:53.062Z,15.93
2019-01-17T22:18:57.055Z,17.35
2019-01-17T22:24:01.068Z,9.48
2019-01-17T22:29:05.146Z,21.15
2019-01-17T22:34:09.153Z,11.63
2019-01-17T22:39:13.945Z,8.23
2019-01-17T22:44:17.979Z,15.78
2019-01-17T22:49:21.998Z,15.58
2019-01-17T22:54:28.459Z,13.62
2019-01-17T22:59:32.566Z,7.37
2019-01-17T23:04:36.645Z,17.37
2019-01-17T23:09:40.648Z,11.43
2019-01-17T23:14:44.576Z,22.95
2019-01-17T23:19:48.565Z,14.13
2019-01-17T23:24:52.474Z,33.90
2019-01-17T23:29:56.589Z,13.68
2019-01-17T23:35:00.563Z,13.35
2019-01-17T23:40:05.643Z,9.63
2019-01-17T23:45:09.695Z,10.48
2019-01-17T23:50:13.943Z,6.97
2019-01-17T23:55:19.434Z,9.83
